sensor_id;sensor_type;location;lat;lon;timestamp;pressure;altitude;pressure_sealevel;temperature;humidity
77574;BME280;66710;48.868;9.080;2023-07-09T00:02:01;98304.31;;;20.86;57.10
77574;BME280;66710;48.868;9.080;2023-07-09T00:04:27;98297.34;;;20.79;57.24
77574;BME280;66710;48.868;9.080;2023-07-09T00:06:55;98293.28;;;20.77;57.54
77574;BME280;66710;48.868;9.080;2023-07-09T00:09:22;98299.66;;;20.77;58.19
77574;BME280;66710;48.868;9.080;2023-07-09T00:11:49;98297.53;;;20.74;58.03
77574;BME280;66710;48.868;9.080;2023-07-09T00:14:16;98308.16;;;20.72;58.68
77574;BME280;66710;48.868;9.080;2023-07-09T00:16:43;98295.94;;;20.64;58.41
77574;BME280;66710;48.868;9.080;2023-07-09T00:19:17;98296.91;;;20.69;58.16
77574;BME280;66710;48.868;9.080;2023-07-09T00:21:44;98313.06;;;20.67;58.67
77574;BME280;66710;48.868;9.080;2023-07-09T00:24:13;98306.53;;;20.62;58.52
77574;BME280;66710;48.868;9.080;2023-07-09T00:26:40;98303.28;;;20.52;59.16
77574;BME280;66710;48.868;9.080;2023-07-09T00:29:17;98316.03;;;20.44;59.93
77574;BME280;66710;48.868;9.080;2023-07-09T00:31:43;98312.28;;;20.40;60.08
77574;BME280;66710;48.868;9.080;2023-07-09T00:34:10;98314.06;;;20.44;59.57
77574;BME280;66710;48.868;9.080;2023-07-09T00:36:39;98308.72;;;20.31;59.74
77574;BME280;66710;48.868;9.080;2023-07-09T00:39:20;98312.34;;;20.14;60.47
77574;BME280;66710;48.868;9.080;2023-07-09T00:41:48;98309.75;;;20.08;60.82
77574;BME280;66710;48.868;9.080;2023-07-09T00:49:20;98323.91;;;20.07;60.20
77574;BME280;66710;48.868;9.080;2023-07-09T00:51:46;98314.31;;;20.04;60.75
77574;BME280;66710;48.868;9.080;2023-07-09T00:54:22;98322.91;;;20.03;60.73
77574;BME280;66710;48.868;9.080;2023-07-09T00:57:01;98315.94;;;20.05;60.44
77574;BME280;66710;48.868;9.080;2023-07-09T00:59:28;98319.84;;;19.96;61.15
77574;BME280;66710;48.868;9.080;2023-07-09T01:01:55;98318.06;;;19.82;61.60
77574;BME280;66710;48.868;9.080;2023-07-09T01:04:22;98321.28;;;19.67;62.52
77574;BME280;66710;48.868;9.080;2023-07-09T01:06:52;98326.16;;;19.61;62.87
77574;BME280;66710;48.868;9.080;2023-07-09T01:09:20;98319.00;;;19.51;63.15
77574;BME280;66710;48.868;9.080;2023-07-09T01:11:46;98323.25;;;19.58;63.01
77574;BME280;66710;48.868;9.080;2023-07-09T01:14:14;98333.97;;;19.59;62.95
77574;BME280;66710;48.868;9.080;2023-07-09T01:17:02;98319.31;;;19.59;62.81
77574;BME280;66710;48.868;9.080;2023-07-09T01:19:29;98322.59;;;19.52;62.88
77574;BME280;66710;48.868;9.080;2023-07-09T01:21:59;98320.31;;;19.45;63.32
77574;BME280;66710;48.868;9.080;2023-07-09T01:27:13;98328.25;;;19.38;63.71
77574;BME280;66710;48.868;9.080;2023-07-09T01:29:39;98321.56;;;19.30;63.99
77574;BME280;66710;48.868;9.080;2023-07-09T01:32:05;98327.59;;;19.24;64.43
77574;BME280;66710;48.868;9.080;2023-07-09T01:34:32;98326.09;;;19.18;64.60
77574;BME280;66710;48.868;9.080;2023-07-09T01:36:57;98327.28;;;19.25;64.05
77574;BME280;66710;48.868;9.080;2023-07-09T01:39:22;98328.22;;;19.21;64.07
77574;BME280;66710;48.868;9.080;2023-07-09T01:41:48;98328.06;;;19.17;64.32
77574;BME280;66710;48.868;9.080;2023-07-09T01:44:13;98330.00;;;19.17;64.21
77574;BME280;66710;48.868;9.080;2023-07-09T01:46:39;98330.00;;;19.17;64.55
77574;BME280;66710;48.868;9.080;2023-07-09T01:49:05;98328.69;;;19.14;64.53
77574;BME280;66710;48.868;9.080;2023-07-09T01:51:33;98323.78;;;19.11;64.48
77574;BME280;66710;48.868;9.080;2023-07-09T01:53:58;98324.13;;;19.09;64.71
77574;BME280;66710;48.868;9.080;2023-07-09T01:56:25;98324.78;;;19.06;64.84
77574;BME280;66710;48.868;9.080;2023-07-09T01:58:50;98326.22;;;19.04;64.79
77574;BME280;66710;48.868;9.080;2023-07-09T02:01:16;98321.84;;;19.03;64.82
77574;BME280;66710;48.868;9.080;2023-07-09T02:03:42;98324.59;;;19.03;64.51
77574;BME280;66710;48.868;9.080;2023-07-09T02:06:07;98330.75;;;19.00;65.22
77574;BME280;66710;48.868;9.080;2023-07-09T02:08:36;98329.75;;;18.87;65.69
77574;BME280;66710;48.868;9.080;2023-07-09T02:11:02;98329.69;;;18.78;66.31
77574;BME280;66710;48.868;9.080;2023-07-09T02:13:27;98325.19;;;18.82;65.98
77574;BME280;66710;48.868;9.080;2023-07-09T02:15:53;98335.28;;;18.87;65.89
77574;BME280;66710;48.868;9.080;2023-07-09T02:18:19;98329.97;;;18.99;65.19
77574;BME280;66710;48.868;9.080;2023-07-09T02:20:47;98334.16;;;18.97;65.69
77574;BME280;66710;48.868;9.080;2023-07-09T02:23:12;98335.41;;;18.82;66.23
77574;BME280;66710;48.868;9.080;2023-07-09T02:25:38;98329.69;;;18.78;66.26
77574;BME280;66710;48.868;9.080;2023-07-09T02:28:03;98332.94;;;18.80;66.48
77574;BME280;66710;48.868;9.080;2023-07-09T02:30:29;98338.97;;;18.82;66.17
77574;BME280;66710;48.868;9.080;2023-07-09T02:32:54;98337.38;;;18.90;65.54
77574;BME280;66710;48.868;9.080;2023-07-09T02:35:20;98342.72;;;18.86;66.02
77574;BME280;66710;48.868;9.080;2023-07-09T02:37:46;98340.41;;;18.80;66.09
77574;BME280;66710;48.868;9.080;2023-07-09T02:40:12;98342.84;;;18.81;66.30
77574;BME280;66710;48.868;9.080;2023-07-09T02:42:38;98341.03;;;18.76;66.58
77574;BME280;66710;48.868;9.080;2023-07-09T02:45:04;98351.47;;;18.80;66.58
77574;BME280;66710;48.868;9.080;2023-07-09T02:47:30;98339.78;;;18.83;66.25
77574;BME280;66710;48.868;9.080;2023-07-09T02:49:55;98340.81;;;18.87;66.06
77574;BME280;66710;48.868;9.080;2023-07-09T02:52:20;98339.97;;;18.86;66.22
77574;BME280;66710;48.868;9.080;2023-07-09T02:54:45;98345.47;;;18.86;65.75
77574;BME280;66710;48.868;9.080;2023-07-09T02:57:11;98352.72;;;18.73;66.66
77574;BME280;66710;48.868;9.080;2023-07-09T02:59:37;98350.94;;;18.77;66.50
77574;BME280;66710;48.868;9.080;2023-07-09T03:02:02;98349.59;;;18.66;67.00
77574;BME280;66710;48.868;9.080;2023-07-09T03:04:28;98351.41;;;18.71;66.65
77574;BME280;66710;48.868;9.080;2023-07-09T03:06:56;98347.16;;;18.65;66.92
77574;BME280;66710;48.868;9.080;2023-07-09T03:09:22;98348.47;;;18.67;66.96
77574;BME280;66710;48.868;9.080;2023-07-09T03:11:48;98350.41;;;18.67;66.79
77574;BME280;66710;48.868;9.080;2023-07-09T03:14:14;98354.81;;;18.68;67.02
77574;BME280;66710;48.868;9.080;2023-07-09T03:16:40;98357.34;;;18.55;67.64
77574;BME280;66710;48.868;9.080;2023-07-09T03:19:05;98360.28;;;18.59;67.40
77574;BME280;66710;48.868;9.080;2023-07-09T03:21:31;98357.84;;;18.57;67.25
77574;BME280;66710;48.868;9.080;2023-07-09T03:23:57;98361.03;;;18.51;67.57
77574;BME280;66710;48.868;9.080;2023-07-09T03:26:23;98354.44;;;18.61;67.21
77574;BME280;66710;48.868;9.080;2023-07-09T03:28:48;98357.38;;;18.64;67.05
77574;BME280;66710;48.868;9.080;2023-07-09T03:31:15;98356.44;;;18.69;66.98
77574;BME280;66710;48.868;9.080;2023-07-09T03:33:41;98362.72;;;18.61;67.17
77574;BME280;66710;48.868;9.080;2023-07-09T03:36:06;98366.84;;;18.41;68.04
77574;BME280;66710;48.868;9.080;2023-07-09T03:38:32;98367.47;;;18.37;68.32
77574;BME280;66710;48.868;9.080;2023-07-09T03:40:57;98366.97;;;18.35;68.11
77574;BME280;66710;48.868;9.080;2023-07-09T03:43:23;98371.66;;;18.35;68.29
77574;BME280;66710;48.868;9.080;2023-07-09T03:45:49;98367.59;;;18.32;68.39
77574;BME280;66710;48.868;9.080;2023-07-09T03:48:16;98374.41;;;18.35;68.14
77574;BME280;66710;48.868;9.080;2023-07-09T03:50:44;98372.50;;;18.35;68.32
77574;BME280;66710;48.868;9.080;2023-07-09T03:53:09;98370.53;;;18.36;68.67
77574;BME280;66710;48.868;9.080;2023-07-09T03:55:35;98379.13;;;18.34;68.27
77574;BME280;66710;48.868;9.080;2023-07-09T03:58:00;98372.66;;;18.39;68.25
77574;BME280;66710;48.868;9.080;2023-07-09T04:00:28;98382.56;;;18.40;68.18
77574;BME280;66710;48.868;9.080;2023-07-09T04:02:54;98377.03;;;18.40;68.16
77574;BME280;66710;48.868;9.080;2023-07-09T04:05:25;98372.34;;;18.41;68.19
77574;BME280;66710;48.868;9.080;2023-07-09T04:07:51;98374.47;;;18.44;68.01
77574;BME280;66710;48.868;9.080;2023-07-09T04:10:16;98375.50;;;18.48;68.10
77574;BME280;66710;48.868;9.080;2023-07-09T04:12:41;98376.28;;;18.48;67.91
77574;BME280;66710;48.868;9.080;2023-07-09T04:15:08;98371.41;;;18.45;68.16
77574;BME280;66710;48.868;9.080;2023-07-09T04:17:33;98379.34;;;18.47;68.34
77574;BME280;66710;48.868;9.080;2023-07-09T04:19:59;98372.38;;;18.49;67.76
77574;BME280;66710;48.868;9.080;2023-07-09T04:22:24;98380.84;;;18.53;68.10
77574;BME280;66710;48.868;9.080;2023-07-09T04:24:50;98382.66;;;18.57;67.98
77574;BME280;66710;48.868;9.080;2023-07-09T04:27:17;98385.59;;;18.61;67.82
77574;BME280;66710;48.868;9.080;2023-07-09T04:29:43;98384.66;;;18.66;67.15
77574;BME280;66710;48.868;9.080;2023-07-09T04:32:13;98379.28;;;18.61;68.44
77574;BME280;66710;48.868;9.080;2023-07-09T04:34:38;98385.78;;;18.65;68.08
77574;BME280;66710;48.868;9.080;2023-07-09T04:37:06;98390.06;;;18.71;68.22
77574;BME280;66710;48.868;9.080;2023-07-09T04:39:32;98382.75;;;18.75;68.38
77574;BME280;66710;48.868;9.080;2023-07-09T04:41:58;98389.41;;;18.74;68.78
77574;BME280;66710;48.868;9.080;2023-07-09T04:44:23;98389.16;;;18.84;68.07
77574;BME280;66710;48.868;9.080;2023-07-09T04:46:50;98394.41;;;18.94;67.86
77574;BME280;66710;48.868;9.080;2023-07-09T04:49:15;98391.69;;;19.03;66.71
77574;BME280;66710;48.868;9.080;2023-07-09T04:51:40;98388.03;;;19.17;66.61
77574;BME280;66710;48.868;9.080;2023-07-09T04:54:06;98391.94;;;19.24;66.85
77574;BME280;66710;48.868;9.080;2023-07-09T04:56:31;98397.16;;;19.35;66.92
77574;BME280;66710;48.868;9.080;2023-07-09T04:58:57;98391.53;;;19.48;66.08
77574;BME280;66710;48.868;9.080;2023-07-09T05:01:23;98394.78;;;19.59;65.70
77574;BME280;66710;48.868;9.080;2023-07-09T05:03:48;98396.75;;;19.67;65.94
77574;BME280;66710;48.868;9.080;2023-07-09T05:06:14;98396.13;;;19.79;65.57
77574;BME280;66710;48.868;9.080;2023-07-09T05:08:40;98399.88;;;19.92;64.79
77574;BME280;66710;48.868;9.080;2023-07-09T05:11:06;98403.97;;;20.03;64.89
77574;BME280;66710;48.868;9.080;2023-07-09T05:13:31;98405.91;;;20.12;64.71
77574;BME280;66710;48.868;9.080;2023-07-09T05:15:57;98416.81;;;20.25;64.80
77574;BME280;66710;48.868;9.080;2023-07-09T05:18:22;98412.75;;;20.40;64.68
77574;BME280;66710;48.868;9.080;2023-07-09T05:20:49;98411.91;;;20.40;64.57
77574;BME280;66710;48.868;9.080;2023-07-09T05:23:14;98407.84;;;20.55;64.57
77574;BME280;66710;48.868;9.080;2023-07-09T05:25:40;98410.28;;;20.65;63.78
77574;BME280;66710;48.868;9.080;2023-07-09T05:28:06;98409.91;;;20.75;63.67
77574;BME280;66710;48.868;9.080;2023-07-09T05:30:32;98404.72;;;20.82;63.08
77574;BME280;66710;48.868;9.080;2023-07-09T05:32:58;98411.50;;;20.94;63.11
77574;BME280;66710;48.868;9.080;2023-07-09T05:35:25;98404.28;;;21.10;62.68
77574;BME280;66710;48.868;9.080;2023-07-09T05:37:53;98410.75;;;21.23;61.64
77574;BME280;66710;48.868;9.080;2023-07-09T05:40:19;98409.88;;;21.31;61.16
77574;BME280;66710;48.868;9.080;2023-07-09T05:42:45;98410.47;;;21.46;61.48
77574;BME280;66710;48.868;9.080;2023-07-09T05:45:10;98404.56;;;21.56;60.29
77574;BME280;66710;48.868;9.080;2023-07-09T05:47:36;98409.06;;;21.69;59.08
77574;BME280;66710;48.868;9.080;2023-07-09T05:50:02;98417.22;;;21.95;59.10
77574;BME280;66710;48.868;9.080;2023-07-09T05:52:29;98411.59;;;21.83;58.95
77574;BME280;66710;48.868;9.080;2023-07-09T05:54:54;98415.03;;;22.01;58.15
77574;BME280;66710;48.868;9.080;2023-07-09T05:57:20;98415.78;;;22.10;58.02
77574;BME280;66710;48.868;9.080;2023-07-09T05:59:46;98409.47;;;22.22;58.32
77574;BME280;66710;48.868;9.080;2023-07-09T06:02:16;98416.97;;;22.43;57.43
77574;BME280;66710;48.868;9.080;2023-07-09T06:04:41;98421.22;;;22.61;57.42
77574;BME280;66710;48.868;9.080;2023-07-09T06:07:08;98422.63;;;22.67;56.59
77574;BME280;66710;48.868;9.080;2023-07-09T06:09:34;98410.78;;;22.91;56.29
77574;BME280;66710;48.868;9.080;2023-07-09T06:11:59;98425.47;;;22.92;56.45
77574;BME280;66710;48.868;9.080;2023-07-09T06:14:26;98425.72;;;22.99;55.70
77574;BME280;66710;48.868;9.080;2023-07-09T06:16:51;98427.06;;;23.14;55.50
77574;BME280;66710;48.868;9.080;2023-07-09T06:19:17;98427.66;;;23.32;55.71
77574;BME280;66710;48.868;9.080;2023-07-09T06:21:42;98424.06;;;23.44;55.10
77574;BME280;66710;48.868;9.080;2023-07-09T06:24:08;98430.19;;;23.50;54.74
77574;BME280;66710;48.868;9.080;2023-07-09T06:26:34;98426.72;;;23.77;54.81
77574;BME280;66710;48.868;9.080;2023-07-09T06:28:59;98428.56;;;23.85;54.38
77574;BME280;66710;48.868;9.080;2023-07-09T06:31:25;98421.25;;;24.06;54.00
77574;BME280;66710;48.868;9.080;2023-07-09T06:33:50;98426.53;;;24.23;53.74
77574;BME280;66710;48.868;9.080;2023-07-09T06:36:17;98424.09;;;24.50;52.11
77574;BME280;66710;48.868;9.080;2023-07-09T06:38:43;98421.16;;;24.87;51.59
77574;BME280;66710;48.868;9.080;2023-07-09T06:41:09;98425.50;;;25.16;51.13
77574;BME280;66710;48.868;9.080;2023-07-09T06:43:35;98419.50;;;25.30;49.82
77574;BME280;66710;48.868;9.080;2023-07-09T06:46:04;98417.47;;;25.62;50.19
77574;BME280;66710;48.868;9.080;2023-07-09T06:48:30;98419.81;;;26.11;47.91
77574;BME280;66710;48.868;9.080;2023-07-09T06:50:56;98416.66;;;26.13;47.56
77574;BME280;66710;48.868;9.080;2023-07-09T06:53:22;98425.41;;;26.51;47.01
77574;BME280;66710;48.868;9.080;2023-07-09T06:55:47;98425.31;;;26.47;46.47
77574;BME280;66710;48.868;9.080;2023-07-09T06:58:15;98417.13;;;26.74;46.42
77574;BME280;66710;48.868;9.080;2023-07-09T07:00:41;98422.50;;;27.05;45.78
77574;BME280;66710;48.868;9.080;2023-07-09T07:03:06;98424.72;;;27.19;44.97
77574;BME280;66710;48.868;9.080;2023-07-09T07:05:32;98436.44;;;27.48;43.93
77574;BME280;66710;48.868;9.080;2023-07-09T07:07:57;98434.28;;;27.65;44.54
77574;BME280;66710;48.868;9.080;2023-07-09T07:10:23;98424.38;;;28.24;42.91
77574;BME280;66710;48.868;9.080;2023-07-09T07:12:48;98426.53;;;28.08;42.46
77574;BME280;66710;48.868;9.080;2023-07-09T07:15:16;98425.72;;;28.37;42.69
77574;BME280;66710;48.868;9.080;2023-07-09T07:17:42;98429.16;;;28.24;42.82
77574;BME280;66710;48.868;9.080;2023-07-09T07:20:09;98425.56;;;28.57;41.98
77574;BME280;66710;48.868;9.080;2023-07-09T07:22:35;98419.25;;;29.05;40.89
77574;BME280;66710;48.868;9.080;2023-07-09T07:25:00;98420.72;;;28.88;40.64
77574;BME280;66710;48.868;9.080;2023-07-09T07:27:25;98421.06;;;29.20;41.10
77574;BME280;66710;48.868;9.080;2023-07-09T07:29:51;98413.56;;;29.35;40.69
77574;BME280;66710;48.868;9.080;2023-07-09T07:32:16;98415.53;;;28.90;40.09
77574;BME280;66710;48.868;9.080;2023-07-09T07:34:42;98410.53;;;29.58;38.70
77574;BME280;66710;48.868;9.080;2023-07-09T07:37:07;98420.00;;;29.91;39.04
77574;BME280;66710;48.868;9.080;2023-07-09T07:39:33;98419.28;;;30.05;39.77
77574;BME280;66710;48.868;9.080;2023-07-09T07:41:58;98419.94;;;30.50;37.39
77574;BME280;66710;48.868;9.080;2023-07-09T07:44:23;98422.72;;;30.43;37.25
77574;BME280;66710;48.868;9.080;2023-07-09T07:46:49;98417.38;;;30.23;37.15
77574;BME280;66710;48.868;9.080;2023-07-09T07:49:14;98421.81;;;30.32;37.55
77574;BME280;66710;48.868;9.080;2023-07-09T07:51:40;98410.44;;;31.05;35.68
77574;BME280;66710;48.868;9.080;2023-07-09T07:54:06;98407.63;;;31.12;35.44
77574;BME280;66710;48.868;9.080;2023-07-09T07:57:14;98406.31;;;30.70;36.51
77574;BME280;66710;48.868;9.080;2023-07-09T07:59:40;98398.28;;;30.69;35.96
77574;BME280;66710;48.868;9.080;2023-07-09T08:02:11;98401.47;;;30.60;35.05
77574;BME280;66710;48.868;9.080;2023-07-09T08:04:36;98398.19;;;30.40;35.35
77574;BME280;66710;48.868;9.080;2023-07-09T08:07:02;98394.28;;;30.70;35.42
77574;BME280;66710;48.868;9.080;2023-07-09T08:09:27;98397.16;;;30.95;35.40
77574;BME280;66710;48.868;9.080;2023-07-09T08:11:53;98394.34;;;31.24;34.00
77574;BME280;66710;48.868;9.080;2023-07-09T08:14:18;98398.00;;;31.31;34.20
77574;BME280;66710;48.868;9.080;2023-07-09T08:16:43;98391.13;;;31.36;34.15
77574;BME280;66710;48.868;9.080;2023-07-09T08:19:09;98406.03;;;31.69;34.34
77574;BME280;66710;48.868;9.080;2023-07-09T08:21:34;98402.59;;;32.53;32.52
77574;BME280;66710;48.868;9.080;2023-07-09T08:23:59;98399.09;;;32.20;32.55
77574;BME280;66710;48.868;9.080;2023-07-09T08:26:25;98401.56;;;31.89;31.54
77574;BME280;66710;48.868;9.080;2023-07-09T08:28:51;98396.41;;;31.63;32.62
77574;BME280;66710;48.868;9.080;2023-07-09T08:31:17;98395.16;;;31.71;34.79
77574;BME280;66710;48.868;9.080;2023-07-09T08:33:42;98401.91;;;32.20;33.20
77574;BME280;66710;48.868;9.080;2023-07-09T08:36:07;98397.19;;;31.74;33.10
77574;BME280;66710;48.868;9.080;2023-07-09T08:38:33;98398.19;;;32.41;31.88
77574;BME280;66710;48.868;9.080;2023-07-09T08:41:25;98404.44;;;32.85;31.93
77574;BME280;66710;48.868;9.080;2023-07-09T08:47:00;98399.50;;;33.00;32.12
77574;BME280;66710;48.868;9.080;2023-07-09T08:49:37;98402.16;;;32.65;32.97
77574;BME280;66710;48.868;9.080;2023-07-09T08:52:26;98398.97;;;32.60;32.51
77574;BME280;66710;48.868;9.080;2023-07-09T08:54:55;98400.22;;;33.18;32.22
77574;BME280;66710;48.868;9.080;2023-07-09T08:57:25;98390.13;;;33.17;30.81
77574;BME280;66710;48.868;9.080;2023-07-09T08:59:56;98393.66;;;33.32;30.53
77574;BME280;66710;48.868;9.080;2023-07-09T09:02:33;98396.69;;;33.52;29.13
77574;BME280;66710;48.868;9.080;2023-07-09T09:05:02;98404.53;;;32.74;30.55
77574;BME280;66710;48.868;9.080;2023-07-09T09:13:30;98402.75;;;33.51;28.56
77574;BME280;66710;48.868;9.080;2023-07-09T09:16:01;98398.97;;;32.45;30.56
77574;BME280;66710;48.868;9.080;2023-07-09T09:18:32;98403.38;;;32.54;29.56
77574;BME280;66710;48.868;9.080;2023-07-09T09:23:40;98401.94;;;33.95;28.50
77574;BME280;66710;48.868;9.080;2023-07-09T09:26:32;98401.31;;;34.15;28.70
77574;BME280;66710;48.868;9.080;2023-07-09T09:28:58;98398.28;;;33.57;28.16
77574;BME280;66710;48.868;9.080;2023-07-09T09:31:26;98394.59;;;34.02;27.55
77574;BME280;66710;48.868;9.080;2023-07-09T09:33:52;98389.19;;;34.14;27.42
77574;BME280;66710;48.868;9.080;2023-07-09T09:36:23;98400.38;;;34.90;26.80
77574;BME280;66710;48.868;9.080;2023-07-09T09:38:49;98388.63;;;33.51;27.83
77574;BME280;66710;48.868;9.080;2023-07-09T09:41:21;98385.03;;;33.88;28.86
77574;BME280;66710;48.868;9.080;2023-07-09T09:43:48;98396.59;;;34.05;27.94
77574;BME280;66710;48.868;9.080;2023-07-09T09:46:18;98395.19;;;33.40;28.77
77574;BME280;66710;48.868;9.080;2023-07-09T09:48:46;98397.91;;;35.20;27.02
77574;BME280;66710;48.868;9.080;2023-07-09T09:51:12;98396.75;;;34.28;28.17
77574;BME280;66710;48.868;9.080;2023-07-09T09:53:41;98394.09;;;34.79;27.69
77574;BME280;66710;48.868;9.080;2023-07-09T09:56:33;98387.31;;;34.38;28.14
77574;BME280;66710;48.868;9.080;2023-07-09T09:58:59;98384.34;;;34.18;27.97
77574;BME280;66710;48.868;9.080;2023-07-09T10:01:30;98375.00;;;35.10;27.29
77574;BME280;66710;48.868;9.080;2023-07-09T10:03:57;98373.16;;;35.24;27.40
77574;BME280;66710;48.868;9.080;2023-07-09T10:06:40;98376.63;;;35.59;26.03
77574;BME280;66710;48.868;9.080;2023-07-09T10:09:19;98371.34;;;35.10;26.90
77574;BME280;66710;48.868;9.080;2023-07-09T10:12:01;98373.91;;;35.52;27.00
77574;BME280;66710;48.868;9.080;2023-07-09T10:14:53;98370.00;;;35.18;26.43
77574;BME280;66710;48.868;9.080;2023-07-09T10:17:37;98371.16;;;35.72;26.50
77574;BME280;66710;48.868;9.080;2023-07-09T10:20:21;98364.22;;;35.49;26.01
77574;BME280;66710;48.868;9.080;2023-07-09T10:25:46;98359.91;;;36.08;26.36
77574;BME280;66710;48.868;9.080;2023-07-09T10:39:38;98338.97;;;36.22;23.60
77574;BME280;66710;48.868;9.080;2023-07-09T10:42:13;98335.84;;;36.16;22.31
77574;BME280;66710;48.868;9.080;2023-07-09T10:44:48;98332.34;;;35.88;23.61
77574;BME280;66710;48.868;9.080;2023-07-09T10:47:43;98328.16;;;35.93;23.06
77574;BME280;66710;48.868;9.080;2023-07-09T10:50:14;98332.06;;;35.59;23.27
77574;BME280;66710;48.868;9.080;2023-07-09T10:52:46;98333.63;;;35.84;23.51
77574;BME280;66710;48.868;9.080;2023-07-09T10:55:23;98333.78;;;36.37;23.84
77574;BME280;66710;48.868;9.080;2023-07-09T10:58:00;98323.31;;;35.94;23.46
77574;BME280;66710;48.868;9.080;2023-07-09T11:00:38;98329.19;;;37.12;22.58
77574;BME280;66710;48.868;9.080;2023-07-09T11:03:29;98319.41;;;35.64;23.25
77574;BME280;66710;48.868;9.080;2023-07-09T11:05:59;98318.91;;;35.25;22.59
77574;BME280;66710;48.868;9.080;2023-07-09T11:08:34;98319.75;;;34.99;23.50
77574;BME280;66710;48.868;9.080;2023-07-09T11:11:04;98308.72;;;35.28;22.79
77574;BME280;66710;48.868;9.080;2023-07-09T11:13:42;98309.56;;;35.48;22.81
77574;BME280;66710;48.868;9.080;2023-07-09T11:16:17;98311.22;;;36.10;22.08
77574;BME280;66710;48.868;9.080;2023-07-09T11:18:55;98311.31;;;36.06;22.10
77574;BME280;66710;48.868;9.080;2023-07-09T11:21:21;98316.19;;;36.25;20.94
77574;BME280;66710;48.868;9.080;2023-07-09T11:23:55;98312.00;;;35.70;22.06
77574;BME280;66710;48.868;9.080;2023-07-09T11:26:28;98319.06;;;36.78;21.30
77574;BME280;66710;48.868;9.080;2023-07-09T11:31:42;98313.13;;;36.53;21.48
77574;BME280;66710;48.868;9.080;2023-07-09T11:34:17;98308.59;;;36.92;21.26
77574;BME280;66710;48.868;9.080;2023-07-09T11:41:54;98305.28;;;36.24;20.97
77574;BME280;66710;48.868;9.080;2023-07-09T11:44:26;98302.03;;;36.78;20.86
77574;BME280;66710;48.868;9.080;2023-07-09T11:47:08;98303.44;;;36.87;20.10
77574;BME280;66710;48.868;9.080;2023-07-09T11:49:59;98309.34;;;35.83;20.17
77574;BME280;66710;48.868;9.080;2023-07-09T11:54:54;98304.59;;;36.73;19.84
77574;BME280;66710;48.868;9.080;2023-07-09T11:57:19;98307.94;;;36.68;19.47
77574;BME280;66710;48.868;9.080;2023-07-09T11:59:44;98299.28;;;36.91;18.71
77574;BME280;66710;48.868;9.080;2023-07-09T12:02:17;98292.78;;;36.74;19.23
77574;BME280;66710;48.868;9.080;2023-07-09T12:04:44;98280.28;;;37.21;20.23
77574;BME280;66710;48.868;9.080;2023-07-09T12:07:13;98290.97;;;37.46;20.17
77574;BME280;66710;48.868;9.080;2023-07-09T12:09:45;98292.38;;;37.84;19.14
77574;BME280;66710;48.868;9.080;2023-07-09T12:12:24;98286.13;;;37.89;18.16
77574;BME280;66710;48.868;9.080;2023-07-09T12:14:50;98282.69;;;37.23;19.11
77574;BME280;66710;48.868;9.080;2023-07-09T12:17:16;98286.06;;;37.01;18.51
77574;BME280;66710;48.868;9.080;2023-07-09T12:19:42;98284.44;;;37.16;18.52
77574;BME280;66710;48.868;9.080;2023-07-09T12:22:17;98283.13;;;36.72;18.38
77574;BME280;66710;48.868;9.080;2023-07-09T12:24:45;98280.88;;;36.79;18.75
77574;BME280;66710;48.868;9.080;2023-07-09T12:27:18;98277.44;;;37.21;18.54
77574;BME280;66710;48.868;9.080;2023-07-09T12:29:44;98270.59;;;37.64;19.37
77574;BME280;66710;48.868;9.080;2023-07-09T12:32:12;98272.25;;;38.84;17.64
77574;BME280;66710;48.868;9.080;2023-07-09T12:34:38;98261.28;;;38.19;18.08
77574;BME280;66710;48.868;9.080;2023-07-09T12:37:04;98252.44;;;37.87;17.76
77574;BME280;66710;48.868;9.080;2023-07-09T12:39:31;98258.44;;;37.77;17.23
77574;BME280;66710;48.868;9.080;2023-07-09T12:42:01;98255.28;;;37.45;18.11
77574;BME280;66710;48.868;9.080;2023-07-09T12:44:31;98251.66;;;37.87;18.32
77574;BME280;66710;48.868;9.080;2023-07-09T12:46:58;98245.16;;;37.86;17.46
77574;BME280;66710;48.868;9.080;2023-07-09T12:49:31;98237.22;;;37.94;16.46
77574;BME280;66710;48.868;9.080;2023-07-09T12:52:03;98241.22;;;38.09;16.49
77574;BME280;66710;48.868;9.080;2023-07-09T12:54:32;98244.22;;;38.44;16.15
77574;BME280;66710;48.868;9.080;2023-07-09T12:56:59;98229.63;;;37.16;17.10
77574;BME280;66710;48.868;9.080;2023-07-09T12:59:36;98226.13;;;38.64;16.36
77574;BME280;66710;48.868;9.080;2023-07-09T13:04:38;98216.44;;;38.74;16.60
77574;BME280;66710;48.868;9.080;2023-07-09T13:07:04;98222.53;;;39.11;16.07
77574;BME280;66710;48.868;9.080;2023-07-09T13:09:30;98210.78;;;38.96;16.99
77574;BME280;66710;48.868;9.080;2023-07-09T13:11:57;98218.16;;;38.46;16.31
77574;BME280;66710;48.868;9.080;2023-07-09T13:14:30;98209.34;;;38.02;15.79
77574;BME280;66710;48.868;9.080;2023-07-09T13:17:06;98196.03;;;38.63;16.01
77574;BME280;66710;48.868;9.080;2023-07-09T13:19:32;98192.31;;;39.01;15.19
77574;BME280;66710;48.868;9.080;2023-07-09T13:22:01;98191.81;;;38.67;15.64
77574;BME280;66710;48.868;9.080;2023-07-09T13:24:30;98203.19;;;38.03;15.88
77574;BME280;66710;48.868;9.080;2023-07-09T13:26:58;98195.38;;;38.59;15.49
77574;BME280;66710;48.868;9.080;2023-07-09T13:29:26;98190.22;;;39.14;15.32
77574;BME280;66710;48.868;9.080;2023-07-09T13:31:55;98180.88;;;38.66;15.78
77574;BME280;66710;48.868;9.080;2023-07-09T13:34:24;98189.06;;;39.47;15.98
77574;BME280;66710;48.868;9.080;2023-07-09T13:36:51;98186.72;;;38.24;16.22
77574;BME280;66710;48.868;9.080;2023-07-09T13:39:19;98183.34;;;37.32;16.80
77574;BME280;66710;48.868;9.080;2023-07-09T13:41:46;98190.00;;;37.54;16.37
77574;BME280;66710;48.868;9.080;2023-07-09T13:44:16;98177.72;;;37.58;16.80
77574;BME280;66710;48.868;9.080;2023-07-09T13:46:42;98183.97;;;37.23;16.97
77574;BME280;66710;48.868;9.080;2023-07-09T13:49:12;98181.31;;;37.16;17.22
77574;BME280;66710;48.868;9.080;2023-07-09T13:51:40;98175.94;;;37.77;16.55
77574;BME280;66710;48.868;9.080;2023-07-09T13:54:18;98166.13;;;37.23;17.51